sensor_id;sensor_type;location;lat;lon;timestamp;pressure;altitude;pressure_sealevel;temperature;humidity
61906;BME280;47863;55.766;37.672;2022-09-03T00:04:29;100348.97;;;7.50;72.04
61906;BME280;47863;55.766;37.672;2022-09-03T00:07:03;100349.59;;;7.43;74.13
61906;BME280;47863;55.766;37.672;2022-09-03T00:09:35;100353.94;;;7.44;73.68
61906;BME280;47863;55.766;37.672;2022-09-03T00:12:12;100368.81;;;7.46;74.51
61906;BME280;47863;55.766;37.672;2022-09-03T00:14:45;100373.44;;;7.44;74.73
61906;BME280;47863;55.766;37.672;2022-09-03T00:17:17;100369.91;;;7.44;74.66
61906;BME280;47863;55.766;37.672;2022-09-03T00:19:54;100373.56;;;7.43;73.92
61906;BME280;47863;55.766;37.672;2022-09-03T00:22:24;100386.19;;;7.41;73.75
61906;BME280;47863;55.766;37.672;2022-09-03T00:24:53;100387.25;;;7.38;74.24
61906;BME280;47863;55.766;37.672;2022-09-03T00:27:23;100394.53;;;7.36;74.04
61906;BME280;47863;55.766;37.672;2022-09-03T00:30:03;100385.94;;;7.32;73.57
61906;BME280;47863;55.766;37.672;2022-09-03T00:32:49;100396.59;;;7.32;74.29
61906;BME280;47863;55.766;37.672;2022-09-03T00:38:05;100404.75;;;7.31;73.80
61906;BME280;47863;55.766;37.672;2022-09-03T00:40:51;100407.66;;;7.28;74.60
61906;BME280;47863;55.766;37.672;2022-09-03T00:43:50;100403.44;;;7.25;74.72
61906;BME280;47863;55.766;37.672;2022-09-03T00:52:01;100419.03;;;7.19;73.71
61906;BME280;47863;55.766;37.672;2022-09-03T00:57:28;100405.16;;;7.04;74.55
61906;BME280;47863;55.766;37.672;2022-09-03T01:02:43;100424.53;;;7.06;74.77
61906;BME280;47863;55.766;37.672;2022-09-03T01:45:50;100445.47;;;6.77;76.06
61906;BME280;47863;55.766;37.672;2022-09-03T01:59:39;100459.75;;;6.64;77.58
61906;BME280;47863;55.766;37.672;2022-09-03T02:02:19;100466.66;;;6.67;73.99
61906;BME280;47863;55.766;37.672;2022-09-03T02:05:06;100460.13;;;6.60;76.00
61906;BME280;47863;55.766;37.672;2022-09-03T02:07:47;100467.13;;;6.61;74.50
61906;BME280;47863;55.766;37.672;2022-09-03T02:10:18;100465.06;;;6.53;76.89
61906;BME280;47863;55.766;37.672;2022-09-03T02:12:57;100471.09;;;6.55;77.81
61906;BME280;47863;55.766;37.672;2022-09-03T02:15:24;100480.19;;;6.52;78.31
61906;BME280;47863;55.766;37.672;2022-09-03T02:17:54;100476.53;;;6.53;77.41
61906;BME280;47863;55.766;37.672;2022-09-03T02:20:24;100479.19;;;6.53;78.08
61906;BME280;47863;55.766;37.672;2022-09-03T02:22:52;100474.50;;;6.46;78.40
61906;BME280;47863;55.766;37.672;2022-09-03T02:25:20;100473.16;;;6.51;77.41
61906;BME280;47863;55.766;37.672;2022-09-03T02:27:48;100482.47;;;6.57;77.50
61906;BME280;47863;55.766;37.672;2022-09-03T02:30:15;100481.63;;;6.57;77.02
61906;BME280;47863;55.766;37.672;2022-09-03T02:32:41;100480.91;;;6.54;78.03
61906;BME280;47863;55.766;37.672;2022-09-03T02:35:07;100482.47;;;6.57;77.26
61906;BME280;47863;55.766;37.672;2022-09-03T02:37:33;100490.25;;;6.60;77.63
61906;BME280;47863;55.766;37.672;2022-09-03T02:39:59;100488.66;;;6.58;77.96
61906;BME280;47863;55.766;37.672;2022-09-03T02:42:25;100491.91;;;6.61;78.34
61906;BME280;47863;55.766;37.672;2022-09-03T02:44:54;100494.47;;;6.63;79.09
61906;BME280;47863;55.766;37.672;2022-09-03T02:47:22;100490.25;;;6.60;78.28
61906;BME280;47863;55.766;37.672;2022-09-03T02:49:53;100494.34;;;6.64;78.17
61906;BME280;47863;55.766;37.672;2022-09-03T02:52:18;100479.34;;;6.52;78.11
61906;BME280;47863;55.766;37.672;2022-09-03T02:54:44;100491.09;;;6.61;77.41
61906;BME280;47863;55.766;37.672;2022-09-03T02:57:15;100481.88;;;6.53;78.05
61906;BME280;47863;55.766;37.672;2022-09-03T02:59:41;100501.38;;;6.65;78.36
61906;BME280;47863;55.766;37.672;2022-09-03T03:02:10;100502.34;;;6.64;78.11
61906;BME280;47863;55.766;37.672;2022-09-03T03:04:36;100504.03;;;6.65;78.64
61906;BME280;47863;55.766;37.672;2022-09-03T03:07:02;100502.97;;;6.68;78.46
61906;BME280;47863;55.766;37.672;2022-09-03T03:09:27;100501.03;;;6.70;78.45
61906;BME280;47863;55.766;37.672;2022-09-03T03:11:53;100497.75;;;6.66;78.92
61906;BME280;47863;55.766;37.672;2022-09-03T03:14:20;100514.81;;;6.75;78.47
61906;BME280;47863;55.766;37.672;2022-09-03T03:16:47;100523.41;;;6.79;77.72
61906;BME280;47863;55.766;37.672;2022-09-03T03:19:12;100514.69;;;6.77;78.22
61906;BME280;47863;55.766;37.672;2022-09-03T03:21:38;100515.44;;;6.79;77.01
61906;BME280;47863;55.766;37.672;2022-09-03T03:24:04;100521.00;;;6.87;77.64
61906;BME280;47863;55.766;37.672;2022-09-03T03:26:30;100512.66;;;6.80;76.84
61906;BME280;47863;55.766;37.672;2022-09-03T03:28:58;100534.94;;;6.90;76.94
61906;BME280;47863;55.766;37.672;2022-09-03T03:31:24;100531.06;;;6.94;76.77
61906;BME280;47863;55.766;37.672;2022-09-03T03:34:01;100526.47;;;6.97;75.97
61906;BME280;47863;55.766;37.672;2022-09-03T03:36:30;100527.81;;;7.02;77.21
61906;BME280;47863;55.766;37.672;2022-09-03T03:38:57;100532.03;;;7.05;76.42
61906;BME280;47863;55.766;37.672;2022-09-03T03:41:26;100541.47;;;7.09;76.38
61906;BME280;47863;55.766;37.672;2022-09-03T03:43:53;100533.63;;;7.07;75.68
61906;BME280;47863;55.766;37.672;2022-09-03T03:46:19;100530.97;;;7.07;76.86
61906;BME280;47863;55.766;37.672;2022-09-03T03:48:47;100540.66;;;7.20;75.62
61906;BME280;47863;55.766;37.672;2022-09-03T03:51:12;100533.38;;;7.22;76.04
61906;BME280;47863;55.766;37.672;2022-09-03T03:53:38;100538.47;;;7.25;75.40
61906;BME280;47863;55.766;37.672;2022-09-03T03:56:06;100537.00;;;7.32;74.63
61906;BME280;47863;55.766;37.672;2022-09-03T03:58:34;100535.91;;;7.34;75.71
61906;BME280;47863;55.766;37.672;2022-09-03T04:01:06;100544.50;;;7.38;75.21
61906;BME280;47863;55.766;37.672;2022-09-03T04:03:33;100533.72;;;7.40;75.85
61906;BME280;47863;55.766;37.672;2022-09-03T04:05:59;100539.19;;;7.49;75.33
61906;BME280;47863;55.766;37.672;2022-09-03T04:08:28;100532.03;;;7.50;74.56
61906;BME280;47863;55.766;37.672;2022-09-03T04:10:58;100548.41;;;7.57;74.90
61906;BME280;47863;55.766;37.672;2022-09-03T04:13:28;100545.72;;;7.57;75.64
61906;BME280;47863;55.766;37.672;2022-09-03T04:16:01;100517.63;;;7.52;73.84
61906;BME280;47863;55.766;37.672;2022-09-03T04:18:27;100545.56;;;7.69;74.81
61906;BME280;47863;55.766;37.672;2022-09-03T04:20:58;100554.41;;;7.81;73.81
61906;BME280;47863;55.766;37.672;2022-09-03T04:23:24;100545.28;;;7.84;74.03
61906;BME280;47863;55.766;37.672;2022-09-03T04:25:52;100564.78;;;7.95;73.62
61906;BME280;47863;55.766;37.672;2022-09-03T04:28:18;100554.47;;;8.02;72.88
61906;BME280;47863;55.766;37.672;2022-09-03T04:30:43;100565.38;;;8.10;72.35
61906;BME280;47863;55.766;37.672;2022-09-03T04:33:09;100562.50;;;8.23;71.98
61906;BME280;47863;55.766;37.672;2022-09-03T04:35:34;100559.09;;;8.32;71.92
61906;BME280;47863;55.766;37.672;2022-09-03T04:38:00;100560.19;;;8.41;72.72
61906;BME280;47863;55.766;37.672;2022-09-03T04:40:28;100555.19;;;8.48;72.18
61906;BME280;47863;55.766;37.672;2022-09-03T04:42:58;100563.25;;;8.58;72.14
61906;BME280;47863;55.766;37.672;2022-09-03T04:45:24;100559.94;;;8.65;71.96
61906;BME280;47863;55.766;37.672;2022-09-03T04:47:59;100560.72;;;8.77;70.78
61906;BME280;47863;55.766;37.672;2022-09-03T04:50:26;100566.25;;;8.85;70.60
61906;BME280;47863;55.766;37.672;2022-09-03T04:52:54;100563.47;;;8.87;70.19
61906;BME280;47863;55.766;37.672;2022-09-03T04:55:21;100560.78;;;8.87;70.99
61906;BME280;47863;55.766;37.672;2022-09-03T04:57:47;100547.09;;;8.80;71.11
61906;BME280;47863;55.766;37.672;2022-09-03T05:00:13;100561.09;;;8.93;70.08
61906;BME280;47863;55.766;37.672;2022-09-03T05:02:43;100559.03;;;8.97;70.19
61906;BME280;47863;55.766;37.672;2022-09-03T05:05:11;100571.38;;;8.98;71.38
61906;BME280;47863;55.766;37.672;2022-09-03T05:07:37;100568.72;;;8.98;69.57
61906;BME280;47863;55.766;37.672;2022-09-03T05:10:08;100568.59;;;9.00;69.81
61906;BME280;47863;55.766;37.672;2022-09-03T05:12:34;100565.47;;;8.95;70.41
61906;BME280;47863;55.766;37.672;2022-09-03T05:15:00;100568.88;;;8.97;70.61
61906;BME280;47863;55.766;37.672;2022-09-03T05:17:26;100566.75;;;9.00;69.86
61906;BME280;47863;55.766;37.672;2022-09-03T05:19:51;100576.47;;;9.01;70.71
61906;BME280;47863;55.766;37.672;2022-09-03T05:22:18;100563.53;;;8.97;70.83
61906;BME280;47863;55.766;37.672;2022-09-03T05:24:49;100574.69;;;9.11;71.54
61906;BME280;47863;55.766;37.672;2022-09-03T05:27:15;100576.47;;;9.22;70.28
61906;BME280;47863;55.766;37.672;2022-09-03T05:29:44;100581.69;;;9.33;70.44
61906;BME280;47863;55.766;37.672;2022-09-03T05:32:13;100587.94;;;9.44;70.95
61906;BME280;47863;55.766;37.672;2022-09-03T05:34:40;100589.00;;;9.62;69.52
61906;BME280;47863;55.766;37.672;2022-09-03T05:37:06;100580.75;;;9.85;69.24
61906;BME280;47863;55.766;37.672;2022-09-03T05:39:31;100585.34;;;10.23;67.98
61906;BME280;47863;55.766;37.672;2022-09-03T05:41:57;100593.56;;;10.80;66.01
61906;BME280;47863;55.766;37.672;2022-09-03T05:44:22;100592.88;;;11.25;64.11
61906;BME280;47863;55.766;37.672;2022-09-03T05:46:48;100602.88;;;11.70;63.68
61906;BME280;47863;55.766;37.672;2022-09-03T05:49:16;100603.53;;;12.10;61.38
61906;BME280;47863;55.766;37.672;2022-09-03T05:51:42;100598.19;;;12.46;60.80
61906;BME280;47863;55.766;37.672;2022-09-03T05:54:09;100600.94;;;12.72;59.41
61906;BME280;47863;55.766;37.672;2022-09-03T05:56:36;100595.94;;;12.77;61.48
61906;BME280;47863;55.766;37.672;2022-09-03T05:59:06;100600.56;;;12.67;59.84
61906;BME280;47863;55.766;37.672;2022-09-03T06:01:43;100605.38;;;12.63;60.19
61906;BME280;47863;55.766;37.672;2022-09-03T06:04:14;100611.47;;;12.65;58.80
61906;BME280;47863;55.766;37.672;2022-09-03T06:06:42;100613.69;;;12.70;59.09
61906;BME280;47863;55.766;37.672;2022-09-03T06:09:16;100622.19;;;12.83;58.03
61906;BME280;47863;55.766;37.672;2022-09-03T06:11:43;100619.44;;;12.75;57.93
61906;BME280;47863;55.766;37.672;2022-09-03T06:14:11;100621.84;;;12.78;58.50
61906;BME280;47863;55.766;37.672;2022-09-03T06:16:42;100615.19;;;12.90;57.99
61906;BME280;47863;55.766;37.672;2022-09-03T06:19:09;100622.31;;;13.18;57.68
61906;BME280;47863;55.766;37.672;2022-09-03T06:21:36;100612.56;;;13.25;57.21
61906;BME280;47863;55.766;37.672;2022-09-03T06:24:08;100621.66;;;13.24;56.92
61906;BME280;47863;55.766;37.672;2022-09-03T06:26:33;100623.13;;;13.18;56.71
61906;BME280;47863;55.766;37.672;2022-09-03T06:28:59;100623.94;;;13.37;56.62
61906;BME280;47863;55.766;37.672;2022-09-03T06:31:24;100616.25;;;14.19;54.13
61906;BME280;47863;55.766;37.672;2022-09-03T06:33:50;100624.56;;;15.40;51.57
61906;BME280;47863;55.766;37.672;2022-09-03T06:36:21;100618.78;;;17.08;47.33
61906;BME280;47863;55.766;37.672;2022-09-03T06:38:50;100619.53;;;19.07;43.26
61906;BME280;47863;55.766;37.672;2022-09-03T06:41:18;100625.81;;;20.87;39.01
61906;BME280;47863;55.766;37.672;2022-09-03T06:43:45;100617.56;;;22.32;35.24
61906;BME280;47863;55.766;37.672;2022-09-03T06:46:14;100619.84;;;23.68;33.12
61906;BME280;47863;55.766;37.672;2022-09-03T06:48:40;100622.91;;;24.87;31.35
61906;BME280;47863;55.766;37.672;2022-09-03T06:51:11;100625.56;;;26.29;28.28
61906;BME280;47863;55.766;37.672;2022-09-03T06:53:40;100623.56;;;27.55;26.73
61906;BME280;47863;55.766;37.672;2022-09-03T06:56:08;100627.03;;;28.06;26.46
61906;BME280;47863;55.766;37.672;2022-09-03T06:58:39;100619.84;;;28.27;26.80
61906;BME280;47863;55.766;37.672;2022-09-03T07:01:09;100623.88;;;27.75;24.58
61906;BME280;47863;55.766;37.672;2022-09-03T07:03:36;100633.38;;;27.28;25.53
61906;BME280;47863;55.766;37.672;2022-09-03T07:06:03;100636.56;;;27.37;25.13
61906;BME280;47863;55.766;37.672;2022-09-03T07:08:30;100631.44;;;27.46;25.46
61906;BME280;47863;55.766;37.672;2022-09-03T07:11:06;100627.28;;;28.26;24.37
61906;BME280;47863;55.766;37.672;2022-09-03T07:13:37;100630.00;;;29.45;22.67
61906;BME280;47863;55.766;37.672;2022-09-03T07:16:13;100625.50;;;30.60;25.66
61906;BME280;47863;55.766;37.672;2022-09-03T07:18:39;100619.97;;;30.71;21.77
61906;BME280;47863;55.766;37.672;2022-09-03T07:21:07;100639.34;;;31.42;20.25
61906;BME280;47863;55.766;37.672;2022-09-03T07:23:33;100627.53;;;32.12;19.99
61906;BME280;47863;55.766;37.672;2022-09-03T07:26:02;100631.25;;;32.82;18.87
61906;BME280;47863;55.766;37.672;2022-09-03T07:28:29;100635.66;;;33.51;18.17
61906;BME280;47863;55.766;37.672;2022-09-03T07:31:07;100635.59;;;34.05;18.41
61906;BME280;47863;55.766;37.672;2022-09-03T07:33:33;100637.13;;;33.92;17.92
61906;BME280;47863;55.766;37.672;2022-09-03T07:36:07;100632.84;;;34.62;18.40
61906;BME280;47863;55.766;37.672;2022-09-03T07:38:33;100640.06;;;34.63;16.44
61906;BME280;47863;55.766;37.672;2022-09-03T07:41:01;100637.03;;;34.97;15.99
61906;BME280;47863;55.766;37.672;2022-09-03T07:43:27;100634.25;;;35.16;15.87
61906;BME280;47863;55.766;37.672;2022-09-03T07:45:54;100635.59;;;35.32;15.53
61906;BME280;47863;55.766;37.672;2022-09-03T07:48:22;100637.25;;;35.33;15.51
61906;BME280;47863;55.766;37.672;2022-09-03T07:50:47;100634.88;;;34.94;15.75
61906;BME280;47863;55.766;37.672;2022-09-03T07:53:15;100624.50;;;33.81;16.08
61906;BME280;47863;55.766;37.672;2022-09-03T07:55:42;100623.75;;;32.42;17.41
61906;BME280;47863;55.766;37.672;2022-09-03T07:58:08;100624.25;;;32.55;17.68
61906;BME280;47863;55.766;37.672;2022-09-03T08:00:37;100619.94;;;33.42;16.93
61906;BME280;47863;55.766;37.672;2022-09-03T08:03:03;100623.19;;;33.97;16.02
61906;BME280;47863;55.766;37.672;2022-09-03T08:05:34;100633.84;;;34.33;15.64
61906;BME280;47863;55.766;37.672;2022-09-03T08:08:04;100614.81;;;34.78;16.81
61906;BME280;47863;55.766;37.672;2022-09-03T08:10:33;100614.22;;;32.98;16.33
61906;BME280;47863;55.766;37.672;2022-09-03T08:12:59;100628.94;;;32.05;16.71
61906;BME280;47863;55.766;37.672;2022-09-03T08:15:25;100629.09;;;31.53;17.92
61906;BME280;47863;55.766;37.672;2022-09-03T08:17:51;100632.78;;;31.02;18.49
61906;BME280;47863;55.766;37.672;2022-09-03T08:20:18;100633.84;;;31.32;18.17
61906;BME280;47863;55.766;37.672;2022-09-03T08:22:44;100620.09;;;31.97;17.53
61906;BME280;47863;55.766;37.672;2022-09-03T08:25:10;100621.19;;;31.96;17.90
61906;BME280;47863;55.766;37.672;2022-09-03T08:27:36;100620.00;;;31.27;18.01
61906;BME280;47863;55.766;37.672;2022-09-03T08:30:01;100619.50;;;30.89;18.83
61906;BME280;47863;55.766;37.672;2022-09-03T08:32:29;100627.75;;;31.30;18.35
61906;BME280;47863;55.766;37.672;2022-09-03T08:34:54;100607.72;;;31.79;17.73
61906;BME280;47863;55.766;37.672;2022-09-03T08:37:20;100634.75;;;32.13;17.18
61906;BME280;47863;55.766;37.672;2022-09-03T08:39:47;100623.16;;;31.91;17.16
61906;BME280;47863;55.766;37.672;2022-09-03T08:42:24;100619.53;;;32.90;17.50
61906;BME280;47863;55.766;37.672;2022-09-03T08:45:01;100638.88;;;33.58;16.69
61906;BME280;47863;55.766;37.672;2022-09-03T08:47:33;100634.31;;;33.97;16.26
61906;BME280;47863;55.766;37.672;2022-09-03T08:50:21;100614.31;;;34.76;16.81
61906;BME280;47863;55.766;37.672;2022-09-03T08:53:06;100620.94;;;34.94;16.52
61906;BME280;47863;55.766;37.672;2022-09-03T08:58:20;100626.56;;;34.37;15.25
61906;BME280;47863;55.766;37.672;2022-09-03T09:06:07;100616.63;;;33.39;15.48
61906;BME280;47863;55.766;37.672;2022-09-03T09:11:14;100618.16;;;32.92;15.92
61906;BME280;47863;55.766;37.672;2022-09-03T09:14:23;100618.75;;;31.90;17.23
61906;BME280;47863;55.766;37.672;2022-09-03T09:17:20;100616.13;;;31.23;17.59
61906;BME280;47863;55.766;37.672;2022-09-03T09:22:54;100604.03;;;32.49;16.56
61906;BME280;47863;55.766;37.672;2022-09-03T09:25:23;100605.47;;;32.41;15.58
61906;BME280;47863;55.766;37.672;2022-09-03T09:27:58;100616.50;;;33.50;15.27
61906;BME280;47863;55.766;37.672;2022-09-03T09:30:25;100619.13;;;34.08;14.68
61906;BME280;47863;55.766;37.672;2022-09-03T09:32:51;100604.66;;;35.20;14.18
61906;BME280;47863;55.766;37.672;2022-09-03T09:35:17;100599.19;;;36.48;13.28
61906;BME280;47863;55.766;37.672;2022-09-03T09:37:53;100611.19;;;37.97;13.19
61906;BME280;47863;55.766;37.672;2022-09-03T09:40:31;100611.25;;;38.66;11.86
61906;BME280;47863;55.766;37.672;2022-09-03T09:43:10;100601.00;;;38.97;12.16
61906;BME280;47863;55.766;37.672;2022-09-03T09:45:38;100603.66;;;38.84;11.16
61906;BME280;47863;55.766;37.672;2022-09-03T09:48:14;100604.72;;;39.65;11.29
61906;BME280;47863;55.766;37.672;2022-09-03T09:50:41;100606.88;;;39.21;11.18
61906;BME280;47863;55.766;37.672;2022-09-03T09:53:09;100607.63;;;38.66;10.80
61906;BME280;47863;55.766;37.672;2022-09-03T09:58:19;100599.75;;;36.59;11.38
61906;BME280;47863;55.766;37.672;2022-09-03T10:01:04;100607.72;;;36.66;12.13
61906;BME280;47863;55.766;37.672;2022-09-03T10:03:40;100597.91;;;36.55;11.57
61906;BME280;47863;55.766;37.672;2022-09-03T10:06:08;100601.00;;;36.67;11.57
61906;BME280;47863;55.766;37.672;2022-09-03T10:09:04;100607.81;;;36.61;11.71
61906;BME280;47863;55.766;37.672;2022-09-03T10:11:31;100578.44;;;36.77;11.75
61906;BME280;47863;55.766;37.672;2022-09-03T10:13:59;100602.19;;;37.28;11.25
61906;BME280;47863;55.766;37.672;2022-09-03T10:16:28;100586.38;;;37.15;10.76
61906;BME280;47863;55.766;37.672;2022-09-03T10:19:15;100591.38;;;36.37;11.89
61906;BME280;47863;55.766;37.672;2022-09-03T10:24:18;100587.22;;;35.98;12.26
61906;BME280;47863;55.766;37.672;2022-09-03T10:26:48;100589.78;;;34.78;11.98
61906;BME280;47863;55.766;37.672;2022-09-03T10:29:20;100597.19;;;33.39;13.69
61906;BME280;47863;55.766;37.672;2022-09-03T10:50:52;100597.19;;;22.92;21.43
61906;BME280;47863;55.766;37.672;2022-09-03T10:56:11;100576.47;;;22.59;23.16
61906;BME280;47863;55.766;37.672;2022-09-03T11:07:26;100597.00;;;23.81;21.75
61906;BME280;47863;55.766;37.672;2022-09-03T11:10:03;100595.88;;;23.26;22.80
61906;BME280;47863;55.766;37.672;2022-09-03T11:12:37;100602.06;;;23.59;22.52
61906;BME280;47863;55.766;37.672;2022-09-03T11:15:22;100597.50;;;24.80;21.50
61906;BME280;47863;55.766;37.672;2022-09-03T11:18:07;100592.56;;;26.58;19.68
61906;BME280;47863;55.766;37.672;2022-09-03T11:20:39;100580.69;;;27.37;19.00
61906;BME280;47863;55.766;37.672;2022-09-03T11:23:06;100589.63;;;27.88;18.62
61906;BME280;47863;55.766;37.672;2022-09-03T11:25:36;100582.34;;;28.80;18.17
61906;BME280;47863;55.766;37.672;2022-09-03T11:31:16;100589.47;;;30.19;17.30
61906;BME280;47863;55.766;37.672;2022-09-03T11:33:50;100598.41;;;28.56;17.97
61906;BME280;47863;55.766;37.672;2022-09-03T11:36:31;100590.19;;;26.95;19.47
61906;BME280;47863;55.766;37.672;2022-09-03T11:38:57;100593.78;;;25.40;20.71
61906;BME280;47863;55.766;37.672;2022-09-03T11:41:25;100589.13;;;24.03;22.63
61906;BME280;47863;55.766;37.672;2022-09-03T11:43:52;100595.91;;;22.94;23.84
61906;BME280;47863;55.766;37.672;2022-09-03T11:48:54;100576.34;;;21.37;26.18
61906;BME280;47863;55.766;37.672;2022-09-03T11:53:58;100567.75;;;22.94;25.48
61906;BME280;47863;55.766;37.672;2022-09-03T11:56:25;100577.19;;;24.15;24.19
61906;BME280;47863;55.766;37.672;2022-09-03T11:59:26;100570.66;;;25.36;22.23
61906;BME280;47863;55.766;37.672;2022-09-03T12:01:59;100554.50;;;26.04;21.86
61906;BME280;47863;55.766;37.672;2022-09-03T12:07:28;100563.63;;;29.20;20.10
61906;BME280;47863;55.766;37.672;2022-09-03T12:10:16;100564.13;;;30.38;18.80
61906;BME280;47863;55.766;37.672;2022-09-03T12:18:22;100546.69;;;31.25;17.42
61906;BME280;47863;55.766;37.672;2022-09-03T12:23:33;100546.13;;;30.20;17.74
61906;BME280;47863;55.766;37.672;2022-09-03T12:26:08;100538.72;;;28.45;18.60
61906;BME280;47863;55.766;37.672;2022-09-03T12:28:40;100549.25;;;26.77;20.65
61906;BME280;47863;55.766;37.672;2022-09-03T12:31:15;100548.09;;;26.44;21.46
61906;BME280;47863;55.766;37.672;2022-09-03T12:36:22;100543.69;;;28.43;20.08
61906;BME280;47863;55.766;37.672;2022-09-03T12:38:48;100533.53;;;29.18;19.18
61906;BME280;47863;55.766;37.672;2022-09-03T12:41:21;100538.88;;;29.35;18.92
61906;BME280;47863;55.766;37.672;2022-09-03T12:43:52;100532.25;;;28.29;19.45
61906;BME280;47863;55.766;37.672;2022-09-03T12:46:21;100518.19;;;26.76;20.74
61906;BME280;47863;55.766;37.672;2022-09-03T12:49:06;100522.47;;;25.40;21.61
61906;BME280;47863;55.766;37.672;2022-09-03T12:51:42;100525.53;;;24.07;22.96
61906;BME280;47863;55.766;37.672;2022-09-03T12:54:11;100519.81;;;22.98;25.91
61906;BME280;47863;55.766;37.672;2022-09-03T12:56:48;100526.31;;;22.53;25.46
61906;BME280;47863;55.766;37.672;2022-09-03T12:59:18;100499.72;;;22.67;25.61
61906;BME280;47863;55.766;37.672;2022-09-03T13:01:57;100511.50;;;23.67;24.40
61906;BME280;47863;55.766;37.672;2022-09-03T13:04:32;100517.81;;;24.70;23.79
61906;BME280;47863;55.766;37.672;2022-09-03T13:07:10;100518.53;;;25.48;22.29
61906;BME280;47863;55.766;37.672;2022-09-03T13:09:38;100513.59;;;25.62;22.24
61906;BME280;47863;55.766;37.672;2022-09-03T13:12:05;100498.69;;;25.58;21.76
61906;BME280;47863;55.766;37.672;2022-09-03T13:14:42;100504.31;;;25.91;21.84
61906;BME280;47863;55.766;37.672;2022-09-03T13:20:44;100510.06;;;26.19;21.16
61906;BME280;47863;55.766;37.672;2022-09-03T13:31:49;100494.53;;;24.37;22.14
61906;BME280;47863;55.766;37.672;2022-09-03T13:34:36;100498.75;;;23.05;23.25
61906;BME280;47863;55.766;37.672;2022-09-03T13:37:37;100495.41;;;21.89;24.75
61906;BME280;47863;55.766;37.672;2022-09-03T13:40:15;100496.56;;;21.03;25.81
61906;BME280;47863;55.766;37.672;2022-09-03T13:45:56;100500.47;;;19.87;29.29
61906;BME280;47863;55.766;37.672;2022-09-03T13:48:38;100493.88;;;19.61;27.34
61906;BME280;47863;55.766;37.672;2022-09-03T13:54:24;100486.00;;;18.97;27.62
61906;BME280;47863;55.766;37.672;2022-09-03T13:57:08;100491.63;;;18.39;29.39
61906;BME280;47863;55.766;37.672;2022-09-03T14:02:21;100479.94;;;17.95;31.17
61906;BME280;47863;55.766;37.672;2022-09-03T14:08:12;100481.78;;;17.58;32.05
61906;BME280;47863;55.766;37.672;2022-09-03T14:10:54;100470.69;;;17.38;33.08
61906;BME280;47863;55.766;37.672;2022-09-03T14:16:44;100457.81;;;17.25;33.51
61906;BME280;47863;55.766;37.672;2022-09-03T14:19:18;100447.09;;;17.17;32.85
61906;BME280;47863;55.766;37.672;2022-09-03T14:24:21;100457.81;;;17.40;33.86
61906;BME280;47863;55.766;37.672;2022-09-03T14:27:00;100455.06;;;17.55;32.69
61906;BME280;47863;55.766;37.672;2022-09-03T14:29:31;100446.94;;;17.55;33.54
61906;BME280;47863;55.766;37.672;2022-09-03T14:40:46;100445.59;;;17.00;34.79
61906;BME280;47863;55.766;37.672;2022-09-03T14:43:19;100453.16;;;16.90;37.05
61906;BME280;47863;55.766;37.672;2022-09-03T14:54:29;100455.91;;;16.66;36.04
61906;BME280;47863;55.766;37.672;2022-09-03T15:02:22;100450.97;;;16.55;37.34
61906;BME280;47863;55.766;37.672;2022-09-03T15:07:54;100446.88;;;16.59;37.33
61906;BME280;47863;55.766;37.672;2022-09-03T15:12:51;100436.63;;;16.55;37.66
61906;BME280;47863;55.766;37.672;2022-09-03T15:15:20;100437.28;;;16.57;37.99
61906;BME280;47863;55.766;37.672;2022-09-03T15:20:49;100435.66;;;16.62;36.44
61906;BME280;47863;55.766;37.672;2022-09-03T15:40:06;100423.25;;;15.69;38.70
61906;BME280;47863;55.766;37.672;2022-09-03T15:42:32;100424.22;;;15.53;39.00
61906;BME280;47863;55.766;37.672;2022-09-03T15:45:17;100418.53;;;15.40;38.18
61906;BME280;47863;55.766;37.672;2022-09-03T15:58:47;100435.34;;;14.79;40.95
61906;BME280;47863;55.766;37.672;2022-09-03T16:01:24;100430.81;;;14.72;41.53
61906;BME280;47863;55.766;37.672;2022-09-03T16:12:13;100441.44;;;14.32;43.39
61906;BME280;47863;55.766;37.672;2022-09-03T16:14:57;100434.22;;;14.24;41.05
61906;BME280;47863;55.766;37.672;2022-09-03T16:17:33;100437.41;;;14.12;42.74
61906;BME280;47863;55.766;37.672;2022-09-03T16:20:14;100445.63;;;14.02;42.86
61906;BME280;47863;55.766;37.672;2022-09-03T16:22:53;100438.75;;;13.91;43.85
61906;BME280;47863;55.766;37.672;2022-09-03T16:25:28;100433.66;;;13.80;44.74
61906;BME280;47863;55.766;37.672;2022-09-03T16:28:05;100438.22;;;13.71;44.37
61906;BME280;47863;55.766;37.672;2022-09-03T16:31:10;100431.94;;;13.54;45.26
61906;BME280;47863;55.766;37.672;2022-09-03T16:39:15;100452.25;;;13.40;45.61
61906;BME280;47863;55.766;37.672;2022-09-03T16:44:36;100454.09;;;13.32;47.73
61906;BME280;47863;55.766;37.672;2022-09-03T16:50:13;100450.38;;;13.33;46.43
61906;BME280;47863;55.766;37.672;2022-09-03T17:04:25;100468.00;;;13.69;46.19
61906;BME280;47863;55.766;37.672;2022-09-03T17:15:15;100470.53;;;13.87;47.00
61906;BME280;47863;55.766;37.672;2022-09-03T17:27:04;100461.13;;;13.92;46.32
61906;BME280;47863;55.766;37.672;2022-09-03T17:32:39;100481.31;;;14.04;46.83
61906;BME280;47863;55.766;37.672;2022-09-03T17:35:50;100490.13;;;14.14;45.07
61906;BME280;47863;55.766;37.672;2022-09-03T17:44:09;100486.22;;;14.00;49.24
61906;BME280;47863;55.766;37.672;2022-09-03T17:49:27;100485.84;;;13.71;53.43
61906;BME280;47863;55.766;37.672;2022-09-03T17:54:44;100481.19;;;13.38;56.09
61906;BME280;47863;55.766;37.672;2022-09-03T17:57:27;100477.28;;;13.33;55.01